El Paso, Texas
Current Conditions -  °F | °C
As of 12:51 PM on Tuesday 21 Oct 2014 (Local Time) from KELP Reporting Station
Scattered Clouds Scattered Clouds  
Wind Chill: 69°   Ceiling: Unl
Heat Index: 69°   Visibility: 10mi
Dew Point: 54°   Wind: 3mph
Humidity: 58%   Direction: NA
Pressure: 30.06"   Gusts: NA
Location:  31.76°N, 106.48°W
Report Text: KELP 211851Z VRB03KT 10SM SCT037 SCT140 21/12 A3006 RMK AO2 SLP128 T02060122
Loading
Personal Weather Stations






























Interactive Weather Map
Tropical Storm Tracking
New forecast layout! Learn more

10-Day Weather Forecast

Advertisements
Track Severe Weather on mobile